createdAt,value
2023-05-16T00:01:05.616Z,18.08
2023-05-16T00:03:32.590Z,18.03
2023-05-16T00:05:59.560Z,18.01
2023-05-16T00:08:26.698Z,17.99
2023-05-16T00:10:53.629Z,17.98
2023-05-16T00:13:24.946Z,17.97
2023-05-16T00:15:52.061Z,17.91
2023-05-16T00:18:22.033Z,17.87
2023-05-16T00:20:49.166Z,17.81
2023-05-16T00:23:17.006Z,17.77
2023-05-16T00:25:44.423Z,17.76
2023-05-16T00:28:11.317Z,17.75
2023-05-16T00:30:38.214Z,17.75
2023-05-16T00:33:05.363Z,17.73
2023-05-16T00:35:33.667Z,17.71
2023-05-16T00:38:01.166Z,17.68
2023-05-16T00:40:28.309Z,17.65
2023-05-16T00:42:55.653Z,17.65
2023-05-16T00:45:22.820Z,17.59
2023-05-16T00:47:50.932Z,17.53
2023-05-16T00:50:19.013Z,17.48
2023-05-16T00:52:48.302Z,17.48
2023-05-16T00:55:15.432Z,17.50
2023-05-16T00:57:42.562Z,17.51
2023-05-16T01:00:10.682Z,17.56
2023-05-16T01:02:38.421Z,17.56
2023-05-16T01:05:07.222Z,17.56
2023-05-16T01:07:35.323Z,17.56
2023-05-16T01:10:05.784Z,17.56
2023-05-16T01:12:41.748Z,17.55
2023-05-16T01:15:13.150Z,17.55
2023-05-16T01:17:55.083Z,17.51
2023-05-16T01:20:37.342Z,17.52
2023-05-16T01:23:39.957Z,17.46
2023-05-16T01:26:17.389Z,17.45
2023-05-16T01:28:46.797Z,17.46
2023-05-16T01:31:13.954Z,17.45
2023-05-16T01:33:41.137Z,17.44
2023-05-16T01:36:21.772Z,17.43
2023-05-16T01:39:03.336Z,17.47
2023-05-16T01:41:47.424Z,17.51
2023-05-16T01:44:23.617Z,17.55
2023-05-16T01:46:59.600Z,17.59
2023-05-16T01:49:34.133Z,17.55
2023-05-16T01:52:07.799Z,17.51
2023-05-16T01:54:42.883Z,17.49
2023-05-16T01:57:13.418Z,17.49
2023-05-16T01:59:42.922Z,17.48
2023-05-16T02:02:09.941Z,17.47
2023-05-16T02:04:36.835Z,17.44
2023-05-16T02:07:04.052Z,17.41
2023-05-16T02:09:31.219Z,17.40
2023-05-16T02:11:58.098Z,17.38
2023-05-16T02:14:26.478Z,17.35
2023-05-16T02:16:53.455Z,17.36
2023-05-16T02:19:20.710Z,17.35
2023-05-16T02:21:47.746Z,17.33
2023-05-16T02:24:14.607Z,17.31
2023-05-16T02:26:41.563Z,17.31
2023-05-16T02:29:09.469Z,17.29
2023-05-16T02:31:37.802Z,17.26
2023-05-16T02:34:04.670Z,17.22
2023-05-16T02:36:31.946Z,17.18
2023-05-16T02:38:58.904Z,17.12
2023-05-16T02:41:25.865Z,17.07
2023-05-16T02:43:52.759Z,17.07
2023-05-16T02:46:28.403Z,17.06
2023-05-16T02:48:57.298Z,17.09
2023-05-16T02:51:27.988Z,17.07
2023-05-16T02:54:02.033Z,17.07
2023-05-16T02:56:28.968Z,17.04
2023-05-16T02:58:56.243Z,17.00
2023-05-16T03:01:23.206Z,16.94
2023-05-16T03:03:50.512Z,16.89
2023-05-16T03:06:18.938Z,16.79
2023-05-16T03:08:45.922Z,16.72
2023-05-16T03:11:12.864Z,16.63
2023-05-16T03:13:39.747Z,16.54
2023-05-16T03:16:07.040Z,16.49
2023-05-16T03:18:34.048Z,16.46
2023-05-16T03:21:01.903Z,16.42
2023-05-16T03:23:30.492Z,16.38
2023-05-16T03:25:57.474Z,16.36
2023-05-16T03:28:24.648Z,16.33
2023-05-16T03:30:51.552Z,16.31
2023-05-16T03:33:19.089Z,16.28
2023-05-16T03:35:46.799Z,16.23
2023-05-16T03:38:13.831Z,16.17
2023-05-16T03:40:42.095Z,16.13
2023-05-16T03:43:09.019Z,16.10
2023-05-16T03:45:35.918Z,16.09
2023-05-16T03:48:03.158Z,16.09
2023-05-16T03:50:30.212Z,16.09
2023-05-16T03:52:57.064Z,16.12
2023-05-16T03:55:23.958Z,16.15
2023-05-16T03:57:53.039Z,16.19
2023-05-16T04:00:20.005Z,16.22
2023-05-16T04:02:47.030Z,16.31
2023-05-16T04:05:14.440Z,16.33
2023-05-16T04:07:41.730Z,16.37
2023-05-16T04:10:10.658Z,16.40
2023-05-16T04:12:37.750Z,16.41
2023-05-16T04:15:07.611Z,16.40
2023-05-16T04:17:34.792Z,16.42
2023-05-16T04:20:01.867Z,16.41
2023-05-16T04:22:29.135Z,16.41
2023-05-16T04:24:56.053Z,16.40
2023-05-16T04:27:23.427Z,16.36
2023-05-16T04:29:50.551Z,16.33
2023-05-16T04:32:19.729Z,16.30
2023-05-16T04:34:48.340Z,16.23
2023-05-16T04:37:15.269Z,16.17
2023-05-16T04:39:42.635Z,16.15
2023-05-16T04:42:09.531Z,16.12
2023-05-16T04:44:36.422Z,16.07
2023-05-16T04:47:03.467Z,16.02
2023-05-16T04:49:31.638Z,15.97
2023-05-16T04:51:59.116Z,15.94
2023-05-16T04:54:26.412Z,15.89
2023-05-16T04:56:53.384Z,15.86
2023-05-16T04:59:21.108Z,15.83
2023-05-16T05:01:48.042Z,15.79
2023-05-16T05:04:15.037Z,15.75
2023-05-16T05:06:43.559Z,15.71
2023-05-16T05:09:10.965Z,15.68
2023-05-16T05:11:37.942Z,15.69
2023-05-16T05:14:04.991Z,15.70
2023-05-16T05:16:32.007Z,15.71
2023-05-16T05:18:58.980Z,15.72
2023-05-16T05:21:26.021Z,15.73
2023-05-16T05:23:54.219Z,15.74
2023-05-16T05:26:22.066Z,15.78
2023-05-16T05:29:01.115Z,15.80
2023-05-16T05:31:33.628Z,15.81
2023-05-16T05:34:00.929Z,15.82
2023-05-16T05:36:27.949Z,15.85
2023-05-16T05:38:56.572Z,15.90
2023-05-16T05:41:23.494Z,15.91
2023-05-16T05:43:50.362Z,15.94
2023-05-16T05:46:17.438Z,16.00
2023-05-16T05:48:44.829Z,16.07
2023-05-16T05:51:13.948Z,16.16
2023-05-16T05:53:42.708Z,16.31
2023-05-16T05:56:11.171Z,16.46
2023-05-16T05:58:41.869Z,16.57
2023-05-16T06:01:08.835Z,16.63
2023-05-16T06:03:35.752Z,16.67
2023-05-16T06:06:03.922Z,16.67
2023-05-16T06:08:30.908Z,16.64
2023-05-16T06:10:57.777Z,16.71
2023-05-16T06:13:25.997Z,16.74
2023-05-16T06:15:53.832Z,16.81
2023-05-16T06:18:22.827Z,16.86
2023-05-16T06:20:50.437Z,16.96
2023-05-16T06:23:19.257Z,17.05
2023-05-16T06:25:47.414Z,17.15
2023-05-16T06:28:14.304Z,17.25
2023-05-16T06:30:42.548Z,17.32
2023-05-16T06:33:09.503Z,17.38
2023-05-16T06:35:36.373Z,17.46
2023-05-16T06:38:03.243Z,17.55
2023-05-16T06:40:30.099Z,17.65
2023-05-16T06:42:58.392Z,17.70
2023-05-16T06:45:26.038Z,17.74
2023-05-16T06:47:57.268Z,17.77
2023-05-16T06:50:24.634Z,17.83
2023-05-16T06:52:51.576Z,17.90
2023-05-16T06:55:18.773Z,18.03
2023-05-16T06:57:45.865Z,18.20
2023-05-16T07:00:14.324Z,18.32
2023-05-16T07:02:41.378Z,18.35
2023-05-16T07:05:12.789Z,18.29
2023-05-16T07:07:40.168Z,18.25
2023-05-16T07:10:08.227Z,18.22
2023-05-16T07:12:37.391Z,18.22
2023-05-16T07:15:05.997Z,18.27
2023-05-16T07:17:33.076Z,18.29
2023-05-16T07:20:00.425Z,18.39
2023-05-16T07:22:30.598Z,18.57
2023-05-16T07:25:00.850Z,18.76
2023-05-16T07:27:34.064Z,18.97
2023-05-16T07:30:06.382Z,19.12
2023-05-16T07:32:38.180Z,19.22
2023-05-16T07:35:09.663Z,19.32
2023-05-16T07:37:38.551Z,19.36
2023-05-16T07:40:10.699Z,19.32
2023-05-16T07:42:38.330Z,19.22
2023-05-16T07:45:07.659Z,19.09
2023-05-16T07:47:38.433Z,18.99
2023-05-16T07:50:06.999Z,18.91
2023-05-16T07:52:34.798Z,18.81
2023-05-16T07:55:07.497Z,18.67
2023-05-16T07:57:37.333Z,18.46
2023-05-16T08:00:41.285Z,18.24
2023-05-16T08:03:28.692Z,18.24
2023-05-16T08:05:58.245Z,18.30
2023-05-16T08:08:26.488Z,18.42
2023-05-16T08:10:56.200Z,18.84
2023-05-16T08:13:23.789Z,19.75
2023-05-16T08:15:51.543Z,20.90
2023-05-16T08:18:22.098Z,22.27
2023-05-16T08:20:55.120Z,23.74
2023-05-16T08:23:23.008Z,25.12
2023-05-16T08:26:35.070Z,26.32
2023-05-16T08:29:59.976Z,27.17
2023-05-16T08:32:28.728Z,26.54
2023-05-16T08:38:28.431Z,23.89
2023-05-16T08:41:37.254Z,22.82
2023-05-16T08:44:26.754Z,23.51
2023-05-16T08:47:21.314Z,25.15
2023-05-16T08:49:52.474Z,25.57
2023-05-16T08:55:29.660Z,25.71
2023-05-16T08:59:22.630Z,26.13
2023-05-16T09:02:12.590Z,27.47
2023-05-16T09:04:41.340Z,28.63
2023-05-16T09:07:08.408Z,29.64
2023-05-16T09:09:35.633Z,30.62
2023-05-16T09:12:02.657Z,31.51
2023-05-16T09:14:30.936Z,32.29
2023-05-16T09:17:06.434Z,32.97
2023-05-16T09:19:39.124Z,32.42
2023-05-16T09:22:08.892Z,31.13
2023-05-16T09:24:39.731Z,29.71
2023-05-16T09:27:11.189Z,28.35
2023-05-16T09:29:40.689Z,27.35
2023-05-16T09:32:12.991Z,26.85
2023-05-16T09:34:45.178Z,27.61
2023-05-16T09:37:12.580Z,28.77
2023-05-16T09:39:45.665Z,30.01
2023-05-16T09:42:13.722Z,31.21
2023-05-16T09:44:45.743Z,32.06
2023-05-16T09:47:15.117Z,32.29
2023-05-16T09:49:42.170Z,32.28
2023-05-16T09:52:10.256Z,31.60
2023-05-16T09:54:37.544Z,30.52
2023-05-16T09:57:05.100Z,29.56
2023-05-16T09:59:36.416Z,28.43
2023-05-16T10:02:06.519Z,27.25
2023-05-16T10:04:34.901Z,26.23
2023-05-16T10:07:04.519Z,25.33
2023-05-16T10:09:33.502Z,24.60
2023-05-16T10:12:04.492Z,24.06
2023-05-16T10:14:36.653Z,23.69
2023-05-16T10:17:08.618Z,23.29
2023-05-16T10:19:39.424Z,22.85
2023-05-16T10:22:08.254Z,22.37
2023-05-16T10:24:44.187Z,21.86
2023-05-16T10:27:12.235Z,21.43
2023-05-16T10:29:53.394Z,21.06
2023-05-16T10:32:24.801Z,20.67
2023-05-16T10:34:53.004Z,20.49
2023-05-16T10:37:19.958Z,20.64
2023-05-16T10:39:48.025Z,21.50
2023-05-16T10:42:18.271Z,23.21
2023-05-16T10:44:54.599Z,25.16
2023-05-16T10:47:26.818Z,26.74
2023-05-16T10:49:53.824Z,27.21
2023-05-16T10:52:32.441Z,27.61
2023-05-16T10:55:04.813Z,27.80
2023-05-16T10:57:34.370Z,27.33
2023-05-16T11:00:02.100Z,26.58
2023-05-16T11:02:39.851Z,25.80
2023-05-16T11:05:12.909Z,25.07
2023-05-16T11:07:40.275Z,24.42
2023-05-16T11:10:10.937Z,23.82
2023-05-16T11:12:46.344Z,23.28
2023-05-16T11:15:26.475Z,22.74
2023-05-16T11:18:07.204Z,22.21
2023-05-16T11:20:37.767Z,21.96
2023-05-16T11:23:25.579Z,22.03
2023-05-16T11:25:56.289Z,22.45
2023-05-16T11:28:25.996Z,22.90
2023-05-16T11:30:59.202Z,23.32
2023-05-16T11:33:29.774Z,23.73
2023-05-16T11:36:15.287Z,23.77
2023-05-16T11:38:54.079Z,23.58
2023-05-16T11:41:23.089Z,23.46
2023-05-16T11:43:50.120Z,23.48
2023-05-16T11:46:17.703Z,23.57
2023-05-16T11:48:59.192Z,23.62
2023-05-16T11:51:26.950Z,23.71
2023-05-16T11:54:00.227Z,23.52
2023-05-16T11:56:27.904Z,23.19
2023-05-16T11:58:56.080Z,22.85
2023-05-16T12:01:23.250Z,22.37
2023-05-16T12:03:57.957Z,21.82
2023-05-16T12:06:26.302Z,21.38
2023-05-16T12:08:53.644Z,20.93
2023-05-16T12:11:23.296Z,20.57
2023-05-16T12:13:51.286Z,20.43
2023-05-16T12:16:18.850Z,20.74
2023-05-16T12:18:46.799Z,21.20
2023-05-16T12:21:16.506Z,21.37
2023-05-16T12:23:43.697Z,21.42
2023-05-16T12:26:10.644Z,21.59
2023-05-16T12:28:39.340Z,21.81
2023-05-16T12:31:31.111Z,22.33
2023-05-16T12:33:59.632Z,22.65
2023-05-16T12:36:33.826Z,22.97
2023-05-16T12:39:02.145Z,23.02
2023-05-16T12:41:41.466Z,22.86
2023-05-16T12:44:13.472Z,22.29
2023-05-16T12:46:45.846Z,21.62
2023-05-16T12:49:13.653Z,21.02
2023-05-16T12:51:50.060Z,20.66
2023-05-16T12:54:17.687Z,20.82
2023-05-16T12:56:45.046Z,21.19
2023-05-16T12:59:14.975Z,21.78
2023-05-16T13:01:42.203Z,22.06
2023-05-16T13:04:09.778Z,22.25
2023-05-16T13:06:55.715Z,22.71
2023-05-16T13:09:30.046Z,23.29
2023-05-16T13:11:58.266Z,23.34
2023-05-16T13:14:25.354Z,23.34
2023-05-16T13:16:52.291Z,23.29
2023-05-16T13:19:19.598Z,23.23
2023-05-16T13:21:46.622Z,23.16
2023-05-16T13:24:13.547Z,23.07
2023-05-16T13:26:41.755Z,22.95
2023-05-16T13:29:11.217Z,22.76
2023-05-16T13:31:38.157Z,22.47
2023-05-16T13:34:05.302Z,22.20
2023-05-16T13:36:41.691Z,21.97
2023-05-16T13:39:19.379Z,21.83
2023-05-16T13:41:49.202Z,22.33
2023-05-16T13:44:16.617Z,23.09
2023-05-16T13:46:43.795Z,23.56
2023-05-16T13:49:10.990Z,23.85
2023-05-16T13:51:37.977Z,24.16
2023-05-16T13:54:05.060Z,24.45
2023-05-16T13:56:31.987Z,24.57
2023-05-16T13:59:05.946Z,24.74
2023-05-16T14:01:34.318Z,24.84
2023-05-16T14:04:01.355Z,25.08
2023-05-16T14:06:28.527Z,25.05
2023-05-16T14:08:55.515Z,24.73
2023-05-16T14:11:28.902Z,24.48
2023-05-16T14:13:56.918Z,24.34
2023-05-16T14:16:25.671Z,24.30
2023-05-16T14:18:52.795Z,24.33
2023-05-16T14:21:19.801Z,24.23
2023-05-16T14:23:46.882Z,24.10
2023-05-16T14:26:13.876Z,24.00
2023-05-16T14:28:41.136Z,24.07
2023-05-16T14:31:08.377Z,24.16
2023-05-16T14:33:36.772Z,24.37
2023-05-16T14:36:05.292Z,24.52
2023-05-16T14:38:34.592Z,24.49
2023-05-16T14:41:01.608Z,24.28
2023-05-16T14:43:28.636Z,24.00
2023-05-16T14:45:58.655Z,23.71
2023-05-16T14:48:26.210Z,23.53
2023-05-16T14:50:55.593Z,23.82
2023-05-16T14:53:22.849Z,23.85
2023-05-16T14:55:50.070Z,23.82
2023-05-16T14:58:17.038Z,23.75
2023-05-16T15:00:44.140Z,23.62
2023-05-16T15:03:12.131Z,23.45
2023-05-16T15:05:40.072Z,23.28
2023-05-16T15:08:08.549Z,23.24
2023-05-16T15:10:35.677Z,23.17
2023-05-16T15:13:03.129Z,23.05
2023-05-16T15:15:30.582Z,22.87
2023-05-16T15:17:57.635Z,22.72
2023-05-16T15:20:26.391Z,22.57
2023-05-16T15:22:53.526Z,22.49
2023-05-16T15:25:21.956Z,22.49
2023-05-16T15:27:48.890Z,22.44
2023-05-16T15:30:16.052Z,22.41
2023-05-16T15:32:43.233Z,22.40
2023-05-16T15:35:10.438Z,22.32
2023-05-16T15:37:38.115Z,22.16
2023-05-16T15:40:08.310Z,21.98
2023-05-16T15:42:36.689Z,22.05
2023-05-16T15:45:04.389Z,22.41
2023-05-16T15:47:31.405Z,22.71
2023-05-16T15:49:58.338Z,23.17
2023-05-16T15:52:26.102Z,22.89
2023-05-16T15:54:53.110Z,22.69
2023-05-16T15:57:20.560Z,22.42
2023-05-16T15:59:48.824Z,22.20
2023-05-16T16:02:15.991Z,22.00
2023-05-16T16:04:43.324Z,21.90
2023-05-16T16:07:11.368Z,21.84
2023-05-16T16:09:38.362Z,21.81
2023-05-16T16:12:06.411Z,21.77
2023-05-16T16:14:33.321Z,21.76
2023-05-16T16:17:01.654Z,21.88
2023-05-16T16:19:33.873Z,22.09
2023-05-16T16:22:00.863Z,22.17
2023-05-16T16:24:27.860Z,22.52
2023-05-16T16:26:54.826Z,22.08
2023-05-16T16:29:21.739Z,21.84
2023-05-16T16:31:48.940Z,21.63
2023-05-16T16:34:17.370Z,21.44
2023-05-16T16:36:44.339Z,21.24
2023-05-16T16:39:11.448Z,21.07
2023-05-16T16:41:38.538Z,20.90
2023-05-16T16:44:05.656Z,20.75
2023-05-16T16:46:32.696Z,20.65
2023-05-16T16:48:59.667Z,20.56
2023-05-16T16:51:30.022Z,20.51
2023-05-16T16:53:58.601Z,20.57
2023-05-16T16:56:29.918Z,20.69
2023-05-16T16:58:56.854Z,20.85
2023-05-16T17:01:24.257Z,20.95
2023-05-16T17:03:51.474Z,20.94
2023-05-16T17:06:19.346Z,20.85
2023-05-16T17:08:47.770Z,20.68
2023-05-16T17:11:22.355Z,20.57
2023-05-16T17:13:49.636Z,21.02
2023-05-16T17:16:16.659Z,20.58
2023-05-16T17:18:43.714Z,20.42
2023-05-16T17:21:12.857Z,20.32
2023-05-16T17:23:43.165Z,20.22
2023-05-16T17:26:13.674Z,20.14
2023-05-16T17:28:40.626Z,20.04
2023-05-16T17:31:07.578Z,19.94
2023-05-16T17:33:34.510Z,19.85
2023-05-16T17:36:02.001Z,19.76
2023-05-16T17:38:28.966Z,19.66
2023-05-16T17:40:55.912Z,19.61
2023-05-16T17:43:24.363Z,19.55
2023-05-16T17:45:51.278Z,19.51
2023-05-16T17:48:18.406Z,19.45
2023-05-16T17:50:45.427Z,19.37
2023-05-16T17:53:12.387Z,19.29
2023-05-16T17:55:39.316Z,19.24
2023-05-16T17:58:06.786Z,19.18
2023-05-16T18:00:35.230Z,19.12
2023-05-16T18:03:02.835Z,19.11
2023-05-16T18:05:30.073Z,19.09
2023-05-16T18:07:57.495Z,19.09
2023-05-16T18:10:25.581Z,19.06
2023-05-16T18:12:52.842Z,19.03
2023-05-16T18:15:20.011Z,19.01
2023-05-16T18:17:48.732Z,18.99
2023-05-16T18:20:15.916Z,18.94
2023-05-16T18:22:44.108Z,18.91
2023-05-16T18:25:11.481Z,18.88
2023-05-16T18:27:38.763Z,18.84
2023-05-16T18:30:07.829Z,18.81
2023-05-16T18:32:36.486Z,18.78
2023-05-16T18:35:05.867Z,18.76
2023-05-16T18:37:32.996Z,18.77
2023-05-16T18:39:59.963Z,18.78
2023-05-16T18:42:27.231Z,18.76
2023-05-16T18:44:54.180Z,18.72
2023-05-16T18:47:21.346Z,18.68
2023-05-16T18:49:48.408Z,18.63
2023-05-16T18:52:16.815Z,18.59
2023-05-16T18:54:43.788Z,18.53
2023-05-16T18:57:11.316Z,18.52
2023-05-16T18:59:38.347Z,18.47
2023-05-16T19:02:05.466Z,18.43
2023-05-16T19:04:32.508Z,18.39
2023-05-16T19:07:00.580Z,18.35
2023-05-16T19:09:30.074Z,18.34
2023-05-16T19:11:57.178Z,18.34
2023-05-16T19:14:24.209Z,18.36
2023-05-16T19:16:51.272Z,18.35
2023-05-16T19:19:18.374Z,18.35
2023-05-16T19:21:46.679Z,18.36
2023-05-16T19:24:13.677Z,18.33
2023-05-16T19:26:42.116Z,18.32
2023-05-16T19:29:10.662Z,18.27
2023-05-16T19:31:37.729Z,18.25
2023-05-16T19:34:05.323Z,18.24
2023-05-16T19:36:33.692Z,18.18
2023-05-16T19:39:00.753Z,18.11
2023-05-16T19:41:27.794Z,18.08
2023-05-16T19:43:56.084Z,18.05
2023-05-16T19:46:23.693Z,18.01
2023-05-16T19:48:51.042Z,18.00
2023-05-16T19:51:29.545Z,18.01
2023-05-16T19:54:04.713Z,17.96
2023-05-16T19:56:32.757Z,17.93
2023-05-16T19:59:01.051Z,17.89
2023-05-16T20:01:28.105Z,17.88
2023-05-16T20:03:55.129Z,17.84
2023-05-16T20:06:22.120Z,17.80
2023-05-16T20:08:49.305Z,17.75
2023-05-16T20:11:16.334Z,17.69
2023-05-16T20:13:43.327Z,17.65
2023-05-16T20:16:12.392Z,17.62
2023-05-16T20:18:39.501Z,17.58
2023-05-16T20:21:06.561Z,17.56
2023-05-16T20:23:34.971Z,17.56
2023-05-16T20:26:02.719Z,17.53
2023-05-16T20:28:30.578Z,17.53
2023-05-16T20:30:57.585Z,17.52
2023-05-16T20:33:26.083Z,17.53
2023-05-16T20:35:53.170Z,17.56
2023-05-16T20:38:20.210Z,17.54
2023-05-16T20:40:47.448Z,17.52
2023-05-16T20:43:14.461Z,17.49
2023-05-16T20:45:41.422Z,17.47
2023-05-16T20:48:09.042Z,17.47
2023-05-16T20:50:38.792Z,17.50
2023-05-16T20:53:05.965Z,17.48
2023-05-16T20:55:33.097Z,17.49
2023-05-16T20:58:00.740Z,17.50
2023-05-16T21:00:27.783Z,17.48
2023-05-16T21:02:54.786Z,17.47
2023-05-16T21:05:25.448Z,17.47
2023-05-16T21:07:54.580Z,17.45
2023-05-16T21:10:21.482Z,17.46
2023-05-16T21:12:50.012Z,17.45
2023-05-16T21:15:17.025Z,17.44
2023-05-16T21:17:43.985Z,17.42
2023-05-16T21:20:11.872Z,17.39
2023-05-16T21:22:38.978Z,17.34
2023-05-16T21:25:08.476Z,17.31
2023-05-16T21:27:35.781Z,17.30
2023-05-16T21:30:03.106Z,17.29
2023-05-16T21:32:32.488Z,17.28
2023-05-16T21:35:04.174Z,17.29
2023-05-16T21:37:31.193Z,17.28
2023-05-16T21:39:58.354Z,17.27
2023-05-16T21:42:26.724Z,17.25
2023-05-16T21:44:53.714Z,17.24
2023-05-16T21:47:20.912Z,17.22
2023-05-16T21:49:47.961Z,17.23
2023-05-16T21:52:14.890Z,17.23
2023-05-16T21:54:41.893Z,17.23
2023-05-16T21:57:08.978Z,17.22
2023-05-16T21:59:37.333Z,17.20
2023-05-16T22:02:05.010Z,17.18
2023-05-16T22:04:32.351Z,17.14
2023-05-16T22:06:59.381Z,17.13
2023-05-16T22:09:26.347Z,17.13
2023-05-16T22:11:53.237Z,17.13
2023-05-16T22:14:20.243Z,17.12
2023-05-16T22:16:48.557Z,17.10
2023-05-16T22:19:15.517Z,17.10
2023-05-16T22:21:42.458Z,17.09
2023-05-16T22:24:09.391Z,17.10
2023-05-16T22:26:36.293Z,17.12
2023-05-16T22:29:03.249Z,17.12
2023-05-16T22:31:30.192Z,17.12
2023-05-16T22:33:58.543Z,17.11
2023-05-16T22:36:25.557Z,17.09
2023-05-16T22:38:52.502Z,17.09
2023-05-16T22:41:19.454Z,17.08
2023-05-16T22:43:46.404Z,17.07
2023-05-16T22:46:13.588Z,17.05
2023-05-16T22:48:40.648Z,17.04
2023-05-16T22:51:08.890Z,17.02
2023-05-16T22:53:35.999Z,17.02
2023-05-16T22:56:03.598Z,17.02
2023-05-16T22:58:30.601Z,17.01
2023-05-16T23:00:58.027Z,17.01
2023-05-16T23:03:25.186Z,17.00
2023-05-16T23:05:52.131Z,16.98
2023-05-16T23:08:20.380Z,16.97
2023-05-16T23:10:47.644Z,16.97
2023-05-16T23:13:14.544Z,16.96
2023-05-16T23:15:41.456Z,16.93
2023-05-16T23:18:08.541Z,16.89
2023-05-16T23:20:35.558Z,16.85
2023-05-16T23:23:02.496Z,16.86
2023-05-16T23:25:30.744Z,16.84
2023-05-16T23:27:57.786Z,16.79
2023-05-16T23:30:25.119Z,16.77
2023-05-16T23:32:52.174Z,16.73
2023-05-16T23:35:19.331Z,16.69
2023-05-16T23:37:46.368Z,16.66
2023-05-16T23:40:13.434Z,16.64
2023-05-16T23:42:41.768Z,16.60
2023-05-16T23:45:10.242Z,16.55
2023-05-16T23:47:37.249Z,16.50
2023-05-16T23:50:05.852Z,16.46
2023-05-16T23:52:32.816Z,16.41
2023-05-16T23:54:59.785Z,16.37
2023-05-16T23:57:26.935Z,16.35
2023-05-16T23:59:55.552Z,16.33
